createdAt,value
2023-03-28T00:01:04.507Z,7.56
2023-03-28T00:03:35.712Z,7.49
2023-03-28T00:06:05.456Z,7.51
2023-03-28T00:08:32.245Z,7.53
2023-03-28T00:11:24.782Z,7.57
2023-03-28T00:14:00.615Z,7.58
2023-03-28T00:16:32.404Z,7.39
2023-03-28T00:19:00.773Z,7.52
2023-03-28T00:21:32.547Z,7.55
2023-03-28T00:24:04.376Z,7.48
2023-03-28T00:26:34.408Z,7.55
2023-03-28T00:29:01.992Z,7.46
2023-03-28T00:31:30.782Z,7.34
2023-03-28T00:33:57.510Z,7.32
2023-03-28T00:36:29.559Z,7.41
2023-03-28T00:38:57.857Z,7.40
2023-03-28T00:41:26.884Z,7.37
2023-03-28T00:43:55.119Z,7.33
2023-03-28T00:46:27.226Z,7.30
2023-03-28T00:48:57.867Z,7.32
2023-03-28T00:51:30.573Z,7.25
2023-03-28T00:53:59.947Z,7.22
2023-03-28T00:56:29.864Z,7.22
2023-03-28T00:58:57.503Z,7.25
2023-03-28T01:01:24.008Z,7.29
2023-03-28T01:04:02.221Z,7.33
2023-03-28T01:06:35.443Z,7.40
2023-03-28T01:09:06.463Z,7.39
2023-03-28T01:11:36.676Z,7.35
2023-03-28T01:14:04.341Z,7.35
2023-03-28T01:16:31.105Z,7.33
2023-03-28T01:19:02.012Z,7.31
2023-03-28T01:21:53.823Z,7.25
2023-03-28T01:24:23.138Z,7.16
2023-03-28T01:26:54.160Z,7.25
2023-03-28T01:29:44.651Z,7.08
2023-03-28T01:32:26.335Z,7.11
2023-03-28T01:35:28.917Z,6.99
2023-03-28T01:38:06.759Z,6.98
2023-03-28T01:40:52.489Z,7.14
2023-03-28T01:43:30.489Z,7.19
2023-03-28T01:46:19.224Z,7.00
2023-03-28T01:48:56.472Z,6.96
2023-03-28T01:51:38.775Z,6.98
2023-03-28T01:54:19.306Z,7.00
2023-03-28T01:57:29.055Z,6.87
2023-03-28T02:00:12.024Z,6.91
2023-03-28T02:03:00.584Z,6.92
2023-03-28T02:05:30.036Z,6.90
2023-03-28T02:07:58.206Z,6.91
2023-03-28T02:10:27.808Z,6.89
2023-03-28T02:13:01.766Z,6.91
2023-03-28T02:15:30.929Z,6.97
2023-03-28T02:18:12.187Z,6.95
2023-03-28T02:20:40.151Z,6.93
2023-03-28T02:23:15.057Z,6.93
2023-03-28T02:25:41.527Z,6.91
2023-03-28T02:28:10.136Z,6.89
2023-03-28T02:30:37.051Z,6.76
2023-03-28T02:33:08.484Z,6.83
2023-03-28T02:35:58.500Z,6.76
2023-03-28T02:38:40.196Z,6.81
2023-03-28T02:41:21.471Z,6.92
2023-03-28T02:44:23.767Z,6.96
2023-03-28T02:47:14.133Z,6.86
2023-03-28T02:49:54.467Z,6.94
2023-03-28T02:52:35.124Z,6.91
2023-03-28T02:55:13.349Z,6.85
2023-03-28T02:57:50.315Z,6.97
2023-03-28T03:00:19.435Z,6.92
2023-03-28T03:02:49.396Z,7.04
2023-03-28T03:05:16.235Z,6.97
2023-03-28T03:07:42.638Z,7.13
2023-03-28T03:10:11.309Z,7.10
2023-03-28T03:12:37.956Z,7.13
2023-03-28T03:15:05.313Z,7.17
2023-03-28T03:17:31.771Z,7.12
2023-03-28T03:19:59.006Z,7.05
2023-03-28T03:22:25.627Z,7.09
2023-03-28T03:24:52.023Z,7.10
2023-03-28T03:27:19.405Z,7.11
2023-03-28T03:29:48.320Z,7.10
2023-03-28T03:32:15.371Z,7.11
2023-03-28T03:34:41.799Z,7.15
2023-03-28T03:37:11.654Z,7.15
2023-03-28T03:39:38.033Z,7.14
2023-03-28T03:42:04.568Z,7.08
2023-03-28T03:44:31.107Z,7.13
2023-03-28T03:46:57.890Z,7.14
2023-03-28T03:49:24.398Z,7.13
2023-03-28T03:51:50.804Z,7.15
2023-03-28T03:54:17.294Z,7.13
2023-03-28T03:56:43.816Z,7.06
2023-03-28T03:59:11.376Z,7.03
2023-03-28T04:01:39.875Z,7.01
2023-03-28T04:04:07.683Z,7.00
2023-03-28T04:06:34.406Z,7.06
2023-03-28T04:09:00.855Z,7.00
2023-03-28T04:11:27.211Z,7.02
2023-03-28T04:13:53.596Z,7.01
2023-03-28T04:16:20.843Z,7.00
2023-03-28T04:18:50.888Z,7.02
2023-03-28T04:21:20.693Z,6.95
2023-03-28T04:23:48.228Z,7.00
2023-03-28T04:26:20.598Z,7.02
2023-03-28T04:28:48.042Z,7.07
2023-03-28T04:31:14.404Z,7.14
2023-03-28T04:33:40.826Z,7.00
2023-03-28T04:36:07.974Z,7.04
2023-03-28T04:38:37.762Z,7.00
2023-03-28T04:41:05.367Z,6.93
2023-03-28T04:43:31.928Z,7.02
2023-03-28T04:45:59.603Z,7.01
2023-03-28T04:48:26.991Z,6.99
2023-03-28T04:50:54.539Z,6.98
2023-03-28T04:53:21.532Z,7.03
2023-03-28T04:55:50.070Z,7.08
2023-03-28T04:58:17.933Z,7.06
2023-03-28T05:00:45.897Z,7.12
2023-03-28T05:03:20.981Z,7.14
2023-03-28T05:05:49.547Z,7.08
2023-03-28T05:08:17.749Z,7.00
2023-03-28T05:10:45.914Z,7.05
2023-03-28T05:13:13.117Z,7.02
2023-03-28T05:15:39.599Z,7.00
2023-03-28T05:18:06.355Z,7.02
2023-03-28T05:20:33.255Z,7.01
2023-03-28T05:22:59.797Z,7.04
2023-03-28T05:25:26.226Z,6.96
2023-03-28T05:27:52.646Z,6.94
2023-03-28T05:30:19.511Z,7.00
2023-03-28T05:32:46.039Z,7.00
2023-03-28T05:35:14.756Z,7.03
2023-03-28T05:37:43.473Z,6.99
2023-03-28T05:40:12.510Z,6.90
2023-03-28T05:42:39.818Z,6.93
2023-03-28T05:45:07.533Z,6.92
2023-03-28T05:47:34.333Z,6.92
2023-03-28T05:50:01.390Z,6.97
2023-03-28T05:52:29.272Z,7.01
2023-03-28T05:54:56.236Z,6.99
2023-03-28T05:57:23.691Z,6.94
2023-03-28T05:59:50.122Z,6.92
2023-03-28T06:02:18.742Z,6.98
2023-03-28T06:04:45.492Z,6.91
2023-03-28T06:07:13.538Z,6.91
2023-03-28T06:09:41.085Z,6.85
2023-03-28T06:12:07.867Z,6.83
2023-03-28T06:14:34.297Z,6.85
2023-03-28T06:17:00.773Z,6.91
2023-03-28T06:19:27.515Z,6.93
2023-03-28T06:21:54.084Z,6.91
2023-03-28T06:24:20.713Z,6.93
2023-03-28T06:26:47.231Z,6.88
2023-03-28T06:29:13.672Z,6.85
2023-03-28T06:31:40.442Z,6.96
2023-03-28T06:34:06.961Z,6.96
2023-03-28T06:36:33.512Z,6.91
2023-03-28T06:39:01.493Z,6.95
2023-03-28T06:41:28.009Z,6.96
2023-03-28T06:43:54.458Z,7.04
2023-03-28T06:46:21.420Z,7.09
2023-03-28T06:48:47.911Z,7.06
2023-03-28T06:51:14.613Z,7.29
2023-03-28T06:53:41.047Z,8.13
2023-03-28T06:56:08.267Z,8.81
2023-03-28T06:58:34.728Z,9.22
2023-03-28T07:01:01.808Z,9.65
2023-03-28T07:03:30.058Z,9.91
2023-03-28T07:05:57.144Z,10.16
2023-03-28T07:08:24.002Z,10.65
2023-03-28T07:10:50.567Z,10.94
2023-03-28T07:13:17.068Z,11.18
2023-03-28T07:15:43.450Z,11.37
2023-03-28T07:18:12.659Z,11.42
2023-03-28T07:20:39.994Z,11.54
2023-03-28T07:23:06.545Z,11.69
2023-03-28T07:25:34.826Z,11.80
2023-03-28T07:28:01.189Z,11.75
2023-03-28T07:30:27.566Z,11.65
2023-03-28T07:33:07.113Z,11.82
2023-03-28T07:35:41.165Z,11.72
2023-03-28T07:38:08.046Z,11.69
2023-03-28T07:40:34.436Z,11.52
2023-03-28T07:43:01.185Z,11.40
2023-03-28T07:45:27.606Z,11.19
2023-03-28T07:47:54.084Z,11.03
2023-03-28T07:50:21.143Z,10.81
2023-03-28T07:52:48.899Z,10.70
2023-03-28T07:55:15.531Z,10.49
2023-03-28T07:57:44.212Z,10.30
2023-03-28T08:00:13.666Z,10.20
2023-03-28T08:02:44.729Z,10.13
2023-03-28T08:05:11.522Z,10.14
2023-03-28T08:07:37.967Z,10.11
2023-03-28T08:10:04.768Z,10.01
2023-03-28T08:12:31.827Z,10.01
2023-03-28T08:14:58.447Z,9.88
2023-03-28T08:17:24.928Z,9.91
2023-03-28T08:19:51.396Z,9.93
2023-03-28T08:22:17.776Z,9.97
2023-03-28T08:24:44.330Z,9.96
2023-03-28T08:27:10.738Z,9.90
2023-03-28T08:29:37.110Z,9.95
2023-03-28T08:32:05.213Z,9.91
2023-03-28T08:34:32.384Z,9.94
2023-03-28T08:36:59.790Z,9.94
2023-03-28T08:39:26.603Z,9.97
2023-03-28T08:42:18.267Z,10.02
2023-03-28T08:44:48.517Z,10.04
2023-03-28T08:47:27.034Z,10.07
2023-03-28T08:49:59.806Z,10.02
2023-03-28T08:52:27.479Z,10.04
2023-03-28T08:55:06.331Z,10.06
2023-03-28T08:57:34.933Z,10.13
2023-03-28T09:00:22.357Z,10.10
2023-03-28T09:02:51.314Z,10.10
2023-03-28T09:05:29.211Z,10.12
2023-03-28T09:08:21.831Z,10.16
2023-03-28T09:10:59.820Z,10.18
2023-03-28T09:13:48.275Z,10.21
2023-03-28T09:16:31.437Z,10.23
2023-03-28T09:19:07.171Z,10.31
2023-03-28T09:21:45.668Z,10.35
2023-03-28T09:24:40.377Z,10.35
2023-03-28T09:27:18.878Z,10.40
2023-03-28T09:29:47.155Z,10.39
2023-03-28T09:32:24.236Z,10.41
2023-03-28T09:34:51.965Z,10.42
2023-03-28T09:37:32.501Z,10.46
2023-03-28T09:40:14.302Z,10.57
2023-03-28T09:43:11.921Z,10.55
2023-03-28T09:45:58.507Z,10.60
2023-03-28T09:48:30.923Z,10.57
2023-03-28T09:50:59.089Z,10.61
2023-03-28T09:53:33.038Z,10.60
2023-03-28T09:56:26.256Z,10.68
2023-03-28T09:58:58.007Z,10.71
2023-03-28T10:01:33.852Z,10.73
2023-03-28T10:04:01.311Z,10.77
2023-03-28T10:06:31.489Z,10.83
2023-03-28T10:09:12.863Z,10.94
2023-03-28T10:12:00.055Z,10.92
2023-03-28T10:14:30.646Z,10.96
2023-03-28T10:17:01.397Z,10.91
2023-03-28T10:19:33.409Z,10.96
2023-03-28T10:22:10.886Z,11.06
2023-03-28T10:24:39.579Z,10.99
2023-03-28T10:27:27.876Z,11.05
2023-03-28T10:29:57.397Z,11.06
2023-03-28T10:32:30.219Z,11.04
2023-03-28T10:35:21.415Z,11.08
2023-03-28T10:37:48.667Z,11.13
2023-03-28T10:40:17.834Z,11.25
2023-03-28T10:42:45.565Z,11.20
2023-03-28T10:45:30.313Z,11.27
2023-03-28T10:47:59.448Z,11.30
2023-03-28T10:50:36.862Z,11.30
2023-03-28T10:53:15.457Z,11.36
2023-03-28T10:56:01.358Z,11.42
2023-03-28T10:58:35.695Z,11.63
2023-03-28T11:01:19.494Z,11.53
2023-03-28T11:04:24.129Z,11.50
2023-03-28T11:07:13.488Z,11.64
2023-03-28T11:09:49.892Z,11.71
2023-03-28T11:12:29.913Z,11.69
2023-03-28T11:15:04.467Z,11.84
2023-03-28T11:17:58.265Z,11.82
2023-03-28T11:20:36.953Z,11.79
2023-03-28T11:23:16.095Z,11.89
2023-03-28T11:26:09.384Z,11.85
2023-03-28T11:29:09.903Z,11.89
2023-03-28T11:31:42.321Z,12.05
2023-03-28T11:34:21.780Z,12.09
2023-03-28T11:37:15.793Z,12.16
2023-03-28T11:39:54.024Z,12.10
2023-03-28T11:42:27.864Z,12.22
2023-03-28T11:45:27.942Z,12.35
2023-03-28T11:48:12.434Z,12.42
2023-03-28T11:50:38.831Z,12.40
2023-03-28T11:53:11.037Z,12.33
2023-03-28T11:55:46.949Z,12.29
2023-03-28T11:58:26.081Z,12.35
2023-03-28T12:01:03.321Z,12.53
2023-03-28T12:03:54.438Z,12.45
2023-03-28T12:06:30.006Z,12.46
2023-03-28T12:09:04.450Z,12.63
2023-03-28T12:11:36.950Z,12.60
2023-03-28T12:14:29.630Z,12.66
2023-03-28T12:16:58.854Z,12.67
2023-03-28T12:19:39.918Z,12.68
2023-03-28T12:22:34.166Z,12.68
2023-03-28T12:25:23.504Z,12.70
2023-03-28T12:28:27.132Z,12.76
2023-03-28T12:30:56.513Z,12.72
2023-03-28T12:33:48.719Z,12.66
2023-03-28T12:36:28.473Z,12.80
2023-03-28T12:39:04.784Z,12.89
2023-03-28T12:41:37.216Z,13.10
2023-03-28T12:44:08.198Z,13.11
2023-03-28T12:46:53.182Z,13.11
2023-03-28T12:49:25.048Z,12.98
2023-03-28T12:52:01.708Z,13.13
2023-03-28T12:54:29.914Z,13.01
2023-03-28T12:57:08.365Z,13.02
2023-03-28T12:59:41.121Z,13.01
2023-03-28T13:02:27.390Z,13.10
2023-03-28T13:05:31.837Z,13.22
2023-03-28T13:08:08.926Z,13.22
2023-03-28T13:10:43.571Z,13.39
2023-03-28T13:13:21.906Z,13.30
2023-03-28T13:16:00.505Z,13.36
2023-03-28T13:18:31.456Z,13.39
2023-03-28T13:21:00.084Z,13.34
2023-03-28T13:23:33.645Z,13.41
2023-03-28T13:26:03.554Z,13.39
2023-03-28T13:28:33.746Z,13.40
2023-03-28T13:31:21.845Z,13.33
2023-03-28T13:33:54.038Z,13.37
2023-03-28T13:36:25.988Z,13.32
2023-03-28T13:39:08.295Z,13.38
2023-03-28T13:41:56.520Z,13.36
2023-03-28T13:44:49.263Z,13.47
2023-03-28T13:47:31.279Z,13.60
2023-03-28T13:50:22.465Z,13.66
2023-03-28T13:52:49.002Z,13.60
2023-03-28T13:55:20.984Z,13.63
2023-03-28T13:57:48.392Z,13.48
2023-03-28T14:00:20.456Z,13.44
2023-03-28T14:02:51.670Z,13.49
2023-03-28T14:05:21.616Z,13.51
2023-03-28T14:07:49.674Z,13.50
2023-03-28T14:10:36.628Z,13.59
2023-03-28T14:13:14.179Z,13.58
2023-03-28T14:15:41.043Z,13.67
2023-03-28T14:18:15.111Z,13.77
2023-03-28T14:20:43.658Z,14.02
2023-03-28T14:23:23.984Z,14.15
2023-03-28T14:25:51.328Z,14.19
2023-03-28T14:28:17.722Z,14.12
2023-03-28T14:30:44.187Z,14.04
2023-03-28T14:33:13.534Z,14.01
2023-03-28T14:35:46.196Z,13.97
2023-03-28T14:38:14.776Z,14.02
2023-03-28T14:40:43.549Z,13.91
2023-03-28T14:43:10.316Z,13.90
2023-03-28T14:45:39.461Z,14.02
2023-03-28T14:48:09.156Z,14.03
2023-03-28T14:50:38.551Z,13.92
2023-03-28T14:53:07.885Z,13.79
2023-03-28T14:55:37.500Z,13.74
2023-03-28T14:58:05.959Z,13.73
2023-03-28T15:00:40.053Z,13.88
2023-03-28T15:03:14.926Z,13.80
2023-03-28T15:05:44.036Z,13.72
2023-03-28T15:08:37.733Z,13.76
2023-03-28T15:11:46.073Z,13.75
2023-03-28T15:14:17.017Z,13.80
2023-03-28T15:16:46.587Z,13.84
2023-03-28T15:19:22.139Z,13.82
2023-03-28T15:22:13.840Z,13.77
2023-03-28T15:24:41.397Z,13.72
2023-03-28T15:27:13.558Z,13.76
2023-03-28T15:29:40.204Z,13.64
2023-03-28T15:32:14.968Z,13.63
2023-03-28T15:35:06.662Z,13.60
2023-03-28T15:37:44.515Z,13.57
2023-03-28T15:40:21.524Z,13.54
2023-03-28T15:42:51.749Z,13.62
2023-03-28T15:45:28.092Z,13.60
2023-03-28T15:47:55.601Z,13.60
2023-03-28T15:50:35.422Z,13.59
2023-03-28T15:53:12.594Z,13.53
2023-03-28T15:55:40.656Z,13.50
2023-03-28T15:58:13.039Z,13.48
2023-03-28T16:00:41.867Z,13.49
2023-03-28T16:03:25.123Z,13.49
2023-03-28T16:06:09.655Z,13.41
2023-03-28T16:08:41.096Z,13.37
2023-03-28T16:11:16.167Z,13.35
2023-03-28T16:13:42.749Z,13.32
2023-03-28T16:16:13.856Z,13.21
2023-03-28T16:18:40.615Z,13.16
2023-03-28T16:21:10.021Z,13.12
2023-03-28T16:23:36.396Z,13.06
2023-03-28T16:26:03.929Z,13.12
2023-03-28T16:28:30.312Z,13.05
2023-03-28T16:30:56.787Z,13.04
2023-03-28T16:33:24.622Z,13.05
2023-03-28T16:35:52.552Z,13.01
2023-03-28T16:38:19.104Z,12.93
2023-03-28T16:40:46.619Z,12.92
2023-03-28T16:43:15.353Z,12.91
2023-03-28T16:45:44.862Z,12.78
2023-03-28T16:48:11.542Z,12.71
2023-03-28T16:50:37.959Z,12.65
2023-03-28T16:53:06.408Z,12.52
2023-03-28T16:55:32.946Z,12.45
2023-03-28T16:57:59.542Z,12.39
2023-03-28T17:00:26.002Z,12.33
2023-03-28T17:02:52.469Z,12.20
2023-03-28T17:05:19.196Z,12.06
2023-03-28T17:07:46.109Z,12.03
2023-03-28T17:10:12.659Z,12.00
2023-03-28T17:12:39.139Z,11.95
2023-03-28T17:15:06.610Z,11.96
2023-03-28T17:17:33.123Z,11.92
2023-03-28T17:20:01.040Z,11.84
2023-03-28T17:22:27.517Z,11.81
2023-03-28T17:24:56.811Z,11.73
2023-03-28T17:27:23.426Z,11.68
2023-03-28T17:29:51.564Z,11.61
2023-03-28T17:32:17.995Z,11.53
2023-03-28T17:34:44.505Z,11.46
2023-03-28T17:37:10.961Z,11.47
2023-03-28T17:39:39.265Z,11.44
2023-03-28T17:42:05.684Z,11.38
2023-03-28T17:44:32.673Z,11.30
2023-03-28T17:47:00.568Z,11.26
2023-03-28T17:49:27.151Z,11.26
2023-03-28T17:51:53.667Z,11.21
2023-03-28T17:54:20.273Z,11.15
2023-03-28T17:56:46.690Z,11.15
2023-03-28T17:59:13.465Z,11.13
2023-03-28T18:01:39.928Z,11.10
2023-03-28T18:04:06.797Z,11.02
2023-03-28T18:06:33.707Z,10.85
2023-03-28T18:09:00.180Z,10.83
2023-03-28T18:11:27.018Z,10.81
2023-03-28T18:13:56.998Z,10.77
2023-03-28T18:16:23.787Z,10.76
2023-03-28T18:18:50.539Z,10.72
2023-03-28T18:21:16.992Z,10.73
2023-03-28T18:23:43.414Z,10.70
2023-03-28T18:26:09.847Z,10.74
2023-03-28T18:28:36.559Z,10.76
2023-03-28T18:31:27.992Z,10.83
2023-03-28T18:33:55.217Z,10.78
2023-03-28T18:36:21.844Z,10.78
2023-03-28T18:38:48.464Z,10.74
2023-03-28T18:41:15.337Z,10.73
2023-03-28T18:43:42.624Z,10.69
2023-03-28T18:48:40.196Z,10.52
2023-03-28T18:51:06.669Z,10.53
2023-03-28T18:53:34.102Z,10.58
2023-03-28T18:56:01.258Z,10.54
2023-03-28T18:58:28.369Z,10.49
2023-03-28T19:01:03.325Z,10.43
2023-03-28T19:03:32.803Z,10.40
2023-03-28T19:06:02.194Z,10.36
2023-03-28T19:08:30.166Z,10.32
2023-03-28T19:10:58.594Z,10.28
2023-03-28T19:13:26.081Z,10.28
2023-03-28T19:16:04.665Z,10.29
2023-03-28T19:18:31.470Z,10.30
2023-03-28T19:20:58.223Z,10.22
2023-03-28T19:23:27.282Z,10.23
2023-03-28T19:25:54.135Z,10.17
2023-03-28T19:28:21.930Z,10.15
2023-03-28T19:30:55.794Z,10.16
2023-03-28T19:33:22.260Z,10.01
2023-03-28T19:35:48.683Z,9.99
2023-03-28T19:38:15.095Z,9.95
2023-03-28T19:40:41.468Z,9.98
2023-03-28T19:43:07.815Z,9.93
2023-03-28T19:45:34.274Z,9.92
2023-03-28T19:48:00.845Z,9.90
2023-03-28T19:50:27.280Z,9.93
2023-03-28T19:52:53.645Z,9.96
2023-03-28T19:55:19.991Z,9.90
2023-03-28T19:57:46.437Z,9.92
2023-03-28T20:00:13.317Z,9.85
2023-03-28T20:02:39.825Z,9.80
2023-03-28T20:05:06.606Z,9.80
2023-03-28T20:07:33.077Z,9.81
2023-03-28T20:09:59.688Z,9.79
2023-03-28T20:12:26.139Z,9.79
2023-03-28T20:14:53.433Z,9.80
2023-03-28T20:17:21.420Z,9.79
2023-03-28T20:19:51.391Z,9.64
2023-03-28T20:22:20.087Z,9.51
2023-03-28T20:24:48.652Z,9.41
2023-03-28T20:27:16.280Z,9.43
2023-03-28T20:29:42.730Z,9.35
2023-03-28T20:32:10.395Z,9.42
2023-03-28T20:34:37.065Z,9.34
2023-03-28T20:37:03.474Z,9.20
2023-03-28T20:39:33.835Z,9.28
2023-03-28T20:42:05.412Z,9.18
2023-03-28T20:44:37.967Z,9.15
2023-03-28T20:47:09.002Z,9.24
2023-03-28T20:49:36.011Z,9.08
2023-03-28T20:52:04.126Z,9.16
2023-03-28T20:54:30.490Z,9.16
2023-03-28T20:56:56.965Z,9.22
2023-03-28T20:59:24.448Z,9.24
2023-03-28T21:01:51.362Z,9.29
2023-03-28T21:04:17.695Z,9.31
2023-03-28T21:06:45.921Z,9.34
2023-03-28T21:09:17.792Z,9.33
2023-03-28T21:11:44.412Z,9.25
2023-03-28T21:14:13.394Z,9.24
2023-03-28T21:16:40.498Z,9.12
2023-03-28T21:19:07.062Z,8.93
2023-03-28T21:21:34.045Z,8.83
2023-03-28T21:24:02.159Z,8.74
2023-03-28T21:26:29.103Z,8.71
2023-03-28T21:28:55.779Z,8.78
2023-03-28T21:31:25.542Z,8.76
2023-03-28T21:33:53.878Z,8.71
2023-03-28T21:36:20.903Z,8.71
2023-03-28T21:38:48.561Z,8.59
2023-03-28T21:41:15.436Z,8.71
2023-03-28T21:43:42.915Z,8.65
2023-03-28T21:46:11.200Z,8.62
2023-03-28T21:48:38.086Z,8.56
2023-03-28T21:51:05.162Z,8.59
2023-03-28T21:53:34.582Z,8.57
2023-03-28T21:56:01.123Z,8.59
2023-03-28T21:58:29.717Z,8.55
2023-03-28T22:00:56.622Z,8.44
2023-03-28T22:03:24.283Z,8.48
2023-03-28T22:05:52.108Z,8.60
2023-03-28T22:08:19.341Z,8.58
2023-03-28T22:10:51.328Z,8.75
2023-03-28T22:13:18.242Z,8.83
2023-03-28T22:15:45.067Z,8.92
2023-03-28T22:18:11.939Z,8.87
2023-03-28T22:20:40.611Z,8.82
2023-03-28T22:23:07.686Z,8.73
2023-03-28T22:25:38.302Z,8.70
2023-03-28T22:28:09.909Z,8.64
2023-03-28T22:30:38.206Z,8.59
2023-03-28T22:33:05.861Z,8.60
2023-03-28T22:35:33.493Z,8.48
2023-03-28T22:38:01.277Z,8.49
2023-03-28T22:40:28.464Z,8.59
2023-03-28T22:42:54.881Z,8.62
2023-03-28T22:45:26.574Z,8.53
2023-03-28T22:47:53.404Z,8.57
2023-03-28T22:50:22.003Z,8.59
2023-03-28T22:52:52.487Z,8.59
2023-03-28T22:55:22.392Z,8.59
2023-03-28T22:57:51.653Z,8.61
2023-03-28T23:00:21.558Z,8.59
2023-03-28T23:02:48.653Z,8.43
2023-03-28T23:05:15.160Z,8.42
2023-03-28T23:07:41.546Z,8.34
2023-03-28T23:10:11.924Z,8.40
2023-03-28T23:12:38.546Z,8.33
2023-03-28T23:15:05.314Z,8.39
2023-03-28T23:17:32.123Z,8.48
2023-03-28T23:20:00.386Z,8.29
2023-03-28T23:22:27.157Z,8.24
2023-03-28T23:24:53.667Z,8.32
2023-03-28T23:27:20.109Z,8.28
2023-03-28T23:29:46.626Z,8.24
2023-03-28T23:32:13.032Z,8.10
2023-03-28T23:34:40.267Z,8.05
2023-03-28T23:37:07.065Z,8.20
2023-03-28T23:39:33.459Z,8.28
2023-03-28T23:41:59.865Z,8.22
2023-03-28T23:44:27.716Z,8.21
2023-03-28T23:46:56.290Z,8.38
2023-03-28T23:49:23.230Z,8.29
2023-03-28T23:51:49.934Z,8.32
2023-03-28T23:54:18.510Z,8.23
2023-03-28T23:56:45.723Z,8.31
2023-03-28T23:59:12.288Z,8.25
